Terminal Aerodrome Forecast
Issued by NWS Duluth, MN

Home | Current Version | Previous Version | Text Only | Print | Product List | Glossary On
Versions: 1 2 3 4 5 6 7 8 9 10 11 12 13 14 15 16 17 18 19 20 21 22 23 24
000
FTUS43 KDLH 021100 RRA
TAFDLH
TAF
KDLH 021144Z 0212/0312 30009KT P6SM SKC
     FM021900 22009KT P6SM SCT250
     FM030200 19012KT P6SM BKN080
     FM030700 20012G18KT 4SM -SN BKN025 OVC040
     FM031000 20012KT 2SM -SN OVC015=

USA.gov is the U.S. government's official web portal to all federal, state and local government web resources and services.